sensor_id;sensor_type;location;lat;lon;timestamp;pressure;altitude;pressure_sealevel;temperature;humidity
68197;BME280;55019;49.382;11.358;2023-05-27T00:00:03;97425.63;;;13.70;55.42
68197;BME280;55019;49.382;11.358;2023-05-27T00:02:30;97419.81;;;13.68;55.68
68197;BME280;55019;49.382;11.358;2023-05-27T00:04:55;97431.63;;;14.03;55.26
68197;BME280;55019;49.382;11.358;2023-05-27T00:07:22;97419.00;;;14.08;55.16
68197;BME280;55019;49.382;11.358;2023-05-27T00:09:47;97429.69;;;13.97;55.21
68197;BME280;55019;49.382;11.358;2023-05-27T00:12:13;97422.56;;;13.91;55.12
68197;BME280;55019;49.382;11.358;2023-05-27T00:14:39;97423.22;;;13.85;55.24
68197;BME280;55019;49.382;11.358;2023-05-27T00:17:04;97423.41;;;13.83;55.77
68197;BME280;55019;49.382;11.358;2023-05-27T00:19:30;97417.69;;;13.80;55.25
68197;BME280;55019;49.382;11.358;2023-05-27T00:21:57;97424.03;;;13.93;55.39
68197;BME280;55019;49.382;11.358;2023-05-27T00:24:22;97415.75;;;13.82;54.88
68197;BME280;55019;49.382;11.358;2023-05-27T00:26:49;97423.84;;;13.95;55.08
68197;BME280;55019;49.382;11.358;2023-05-27T00:29:18;97419.00;;;13.84;54.76
68197;BME280;55019;49.382;11.358;2023-05-27T00:31:43;97415.75;;;13.74;54.37
68197;BME280;55019;49.382;11.358;2023-05-27T00:34:09;97417.19;;;13.76;54.74
68197;BME280;55019;49.382;11.358;2023-05-27T00:36:35;97410.88;;;13.79;55.04
68197;BME280;55019;49.382;11.358;2023-05-27T00:39:01;97423.88;;;13.87;55.13
68197;BME280;55019;49.382;11.358;2023-05-27T00:41:27;97407.97;;;13.82;53.98
68197;BME280;55019;49.382;11.358;2023-05-27T00:43:55;97419.00;;;13.92;54.49
68197;BME280;55019;49.382;11.358;2023-05-27T00:46:21;97422.41;;;13.84;54.03
68197;BME280;55019;49.382;11.358;2023-05-27T00:48:47;97424.53;;;13.65;54.75
68197;BME280;55019;49.382;11.358;2023-05-27T00:51:14;97423.38;;;13.59;54.74
68197;BME280;55019;49.382;11.358;2023-05-27T00:53:40;97415.75;;;13.82;54.87
68197;BME280;55019;49.382;11.358;2023-05-27T00:56:10;97419.66;;;13.78;55.62
68197;BME280;55019;49.382;11.358;2023-05-27T00:58:37;97414.28;;;13.71;55.07
68197;BME280;55019;49.382;11.358;2023-05-27T01:01:03;97419.00;;;13.84;54.92
68197;BME280;55019;49.382;11.358;2023-05-27T01:07:29;97415.75;;;13.66;54.58
68197;BME280;55019;49.382;11.358;2023-05-27T01:09:44;97408.63;;;13.76;54.88
68197;BME280;55019;49.382;11.358;2023-05-27T01:14:44;97408.13;;;13.80;54.15
68197;BME280;55019;49.382;11.358;2023-05-27T01:17:11;97403.41;;;13.76;54.24
68197;BME280;55019;49.382;11.358;2023-05-27T01:19:41;97400.97;;;13.58;54.27
68197;BME280;55019;49.382;11.358;2023-05-27T01:22:11;97402.28;;;13.54;54.77
68197;BME280;55019;49.382;11.358;2023-05-27T01:24:37;97399.16;;;13.51;54.43
68197;BME280;55019;49.382;11.358;2023-05-27T01:27:03;97403.75;;;13.57;54.97
68197;BME280;55019;49.382;11.358;2023-05-27T01:29:30;97399.66;;;13.38;54.78
68197;BME280;55019;49.382;11.358;2023-05-27T01:32:08;97396.75;;;13.41;55.36
68197;BME280;55019;49.382;11.358;2023-05-27T01:37:19;97389.75;;;13.50;55.16
68197;BME280;55019;49.382;11.358;2023-05-27T01:39:49;97400.63;;;13.29;55.18
68197;BME280;55019;49.382;11.358;2023-05-27T01:42:16;97397.19;;;13.21;55.04
68197;BME280;55019;49.382;11.358;2023-05-27T01:44:44;97396.88;;;13.24;55.36
68197;BME280;55019;49.382;11.358;2023-05-27T01:47:10;97388.25;;;13.15;55.37
68197;BME280;55019;49.382;11.358;2023-05-27T01:49:36;97394.84;;;12.94;55.12
68197;BME280;55019;49.382;11.358;2023-05-27T01:52:02;97400.09;;;13.02;55.46
68197;BME280;55019;49.382;11.358;2023-05-27T01:54:27;97394.41;;;13.06;55.37
68197;BME280;55019;49.382;11.358;2023-05-27T01:56:53;97390.38;;;13.20;55.80
68197;BME280;55019;49.382;11.358;2023-05-27T01:59:20;97393.28;;;13.09;55.13
68197;BME280;55019;49.382;11.358;2023-05-27T02:01:46;97386.59;;;12.98;55.52
68197;BME280;55019;49.382;11.358;2023-05-27T02:04:11;97385.13;;;12.96;55.06
68197;BME280;55019;49.382;11.358;2023-05-27T02:06:37;97386.94;;;13.03;55.16
68197;BME280;55019;49.382;11.358;2023-05-27T02:09:03;97380.59;;;12.98;55.39
68197;BME280;55019;49.382;11.358;2023-05-27T02:11:29;97383.84;;;13.00;55.48
68197;BME280;55019;49.382;11.358;2023-05-27T02:13:55;97380.53;;;12.82;54.90
68197;BME280;55019;49.382;11.358;2023-05-27T02:16:21;97385.91;;;12.89;54.95
68197;BME280;55019;49.382;11.358;2023-05-27T02:18:48;97385.38;;;12.77;55.54
68197;BME280;55019;49.382;11.358;2023-05-27T02:21:15;97388.22;;;12.58;55.12
68197;BME280;55019;49.382;11.358;2023-05-27T02:23:43;97390.16;;;12.56;55.21
68197;BME280;55019;49.382;11.358;2023-05-27T02:26:08;97385.66;;;12.66;54.95
68197;BME280;55019;49.382;11.358;2023-05-27T02:28:34;97389.88;;;12.67;55.35
68197;BME280;55019;49.382;11.358;2023-05-27T02:31:00;97386.94;;;12.62;54.91
68197;BME280;55019;49.382;11.358;2023-05-27T02:33:27;97387.59;;;12.64;54.36
68197;BME280;55019;49.382;11.358;2023-05-27T02:35:52;97385.09;;;12.47;55.23
68197;BME280;55019;49.382;11.358;2023-05-27T02:38:18;97383.56;;;12.36;55.41
68197;BME280;55019;49.382;11.358;2023-05-27T02:40:44;97381.22;;;12.51;55.60
68197;BME280;55019;49.382;11.358;2023-05-27T02:43:10;97378.75;;;12.49;54.92
68197;BME280;55019;49.382;11.358;2023-05-27T02:45:36;97375.03;;;12.44;55.07
68197;BME280;55019;49.382;11.358;2023-05-27T02:48:02;97378.06;;;12.39;54.97
68197;BME280;55019;49.382;11.358;2023-05-27T02:50:29;97373.53;;;12.41;55.34
68197;BME280;55019;49.382;11.358;2023-05-27T02:52:55;97369.16;;;12.34;54.30
68197;BME280;55019;49.382;11.358;2023-05-27T02:55:21;97374.72;;;12.47;53.99
68197;BME280;55019;49.382;11.358;2023-05-27T02:57:46;97371.41;;;12.29;54.85
68197;BME280;55019;49.382;11.358;2023-05-27T03:00:13;97381.16;;;12.35;54.26
68197;BME280;55019;49.382;11.358;2023-05-27T03:02:40;97374.75;;;12.21;54.27
68197;BME280;55019;49.382;11.358;2023-05-27T03:05:06;97376.50;;;12.21;54.74
68197;BME280;55019;49.382;11.358;2023-05-27T03:07:32;97373.69;;;12.32;53.91
68197;BME280;55019;49.382;11.358;2023-05-27T03:10:00;97370.19;;;12.15;53.68
68197;BME280;55019;49.382;11.358;2023-05-27T03:12:25;97364.53;;;12.20;53.89
68197;BME280;55019;49.382;11.358;2023-05-27T03:14:52;97355.75;;;12.13;53.23
68197;BME280;55019;49.382;11.358;2023-05-27T03:17:19;97363.16;;;12.08;53.65
68197;BME280;55019;49.382;11.358;2023-05-27T03:19:46;97364.50;;;12.12;54.87
68197;BME280;55019;49.382;11.358;2023-05-27T03:22:12;97364.91;;;12.25;53.66
68197;BME280;55019;49.382;11.358;2023-05-27T03:24:39;97354.34;;;12.18;54.20
68197;BME280;55019;49.382;11.358;2023-05-27T03:27:05;97364.00;;;12.08;53.36
68197;BME280;55019;49.382;11.358;2023-05-27T03:29:34;97359.78;;;12.07;53.82
68197;BME280;55019;49.382;11.358;2023-05-27T03:32:01;97366.63;;;12.16;53.94
68197;BME280;55019;49.382;11.358;2023-05-27T03:34:27;97359.56;;;12.01;54.25
68197;BME280;55019;49.382;11.358;2023-05-27T03:36:52;97365.72;;;12.00;54.14
68197;BME280;55019;49.382;11.358;2023-05-27T03:39:23;97357.50;;;12.04;54.57
68197;BME280;55019;49.382;11.358;2023-05-27T03:41:54;97358.97;;;12.07;54.84
68197;BME280;55019;49.382;11.358;2023-05-27T03:44:21;97356.97;;;11.75;55.00
68197;BME280;55019;49.382;11.358;2023-05-27T03:46:47;97359.97;;;11.88;55.24
68197;BME280;55019;49.382;11.358;2023-05-27T03:49:13;97359.88;;;11.98;53.97
68197;BME280;55019;49.382;11.358;2023-05-27T03:51:39;97358.47;;;12.03;54.58
68197;BME280;55019;49.382;11.358;2023-05-27T03:54:05;97356.88;;;12.10;54.70
68197;BME280;55019;49.382;11.358;2023-05-27T03:56:31;97366.47;;;11.92;54.35
68197;BME280;55019;49.382;11.358;2023-05-27T03:58:56;97369.38;;;11.89;54.47
68197;BME280;55019;49.382;11.358;2023-05-27T04:01:22;97374.25;;;11.92;54.48
68197;BME280;55019;49.382;11.358;2023-05-27T04:03:48;97364.31;;;12.05;54.66
68197;BME280;55019;49.382;11.358;2023-05-27T04:06:14;97366.47;;;12.18;54.34
68197;BME280;55019;49.382;11.358;2023-05-27T04:08:40;97374.53;;;12.15;54.62
68197;BME280;55019;49.382;11.358;2023-05-27T04:11:10;97373.44;;;12.17;54.88
68197;BME280;55019;49.382;11.358;2023-05-27T04:13:38;97373.34;;;12.27;54.09
68197;BME280;55019;49.382;11.358;2023-05-27T04:16:05;97367.31;;;12.26;54.35
68197;BME280;55019;49.382;11.358;2023-05-27T04:18:33;97370.38;;;12.22;53.85
68197;BME280;55019;49.382;11.358;2023-05-27T04:20:59;97369.59;;;12.29;54.17
68197;BME280;55019;49.382;11.358;2023-05-27T04:23:26;97376.94;;;12.34;54.27
68197;BME280;55019;49.382;11.358;2023-05-27T04:25:52;97373.34;;;12.27;54.25
68197;BME280;55019;49.382;11.358;2023-05-27T04:28:19;97367.13;;;12.20;54.50
68197;BME280;55019;49.382;11.358;2023-05-27T04:30:46;97370.25;;;12.31;55.34
68197;BME280;55019;49.382;11.358;2023-05-27T04:33:36;97375.75;;;12.28;54.34
68197;BME280;55019;49.382;11.358;2023-05-27T04:36:01;97377.00;;;12.50;53.89
68197;BME280;55019;49.382;11.358;2023-05-27T04:38:34;97374.81;;;12.37;54.22
68197;BME280;55019;49.382;11.358;2023-05-27T04:41:04;97380.31;;;12.34;53.98
68197;BME280;55019;49.382;11.358;2023-05-27T04:43:48;97379.66;;;12.32;53.63
68197;BME280;55019;49.382;11.358;2023-05-27T04:46:17;97377.44;;;12.45;53.58
68197;BME280;55019;49.382;11.358;2023-05-27T04:48:43;97376.31;;;12.40;53.53
68197;BME280;55019;49.382;11.358;2023-05-27T04:51:10;97384.97;;;12.56;53.69
68197;BME280;55019;49.382;11.358;2023-05-27T04:53:36;97385.34;;;12.69;53.26
68197;BME280;55019;49.382;11.358;2023-05-27T04:56:02;97381.41;;;12.57;52.64
68197;BME280;55019;49.382;11.358;2023-05-27T04:58:29;97380.53;;;12.82;52.96
68197;BME280;55019;49.382;11.358;2023-05-27T05:00:54;97382.47;;;12.80;52.18
68197;BME280;55019;49.382;11.358;2023-05-27T05:03:24;97382.47;;;12.80;53.23
68197;BME280;55019;49.382;11.358;2023-05-27T05:06:03;97391.72;;;12.83;52.57
68197;BME280;55019;49.382;11.358;2023-05-27T05:08:29;97385.06;;;12.88;51.74
68197;BME280;55019;49.382;11.358;2023-05-27T05:10:55;97395.34;;;12.98;52.13
68197;BME280;55019;49.382;11.358;2023-05-27T05:13:21;97397.38;;;12.86;52.46
68197;BME280;55019;49.382;11.358;2023-05-27T05:15:47;97389.13;;;12.83;52.72
68197;BME280;55019;49.382;11.358;2023-05-27T05:18:13;97392.13;;;13.03;51.69
68197;BME280;55019;49.382;11.358;2023-05-27T05:20:39;97393.63;;;13.22;52.44
68197;BME280;55019;49.382;11.358;2023-05-27T05:23:07;97393.19;;;13.34;52.24
68197;BME280;55019;49.382;11.358;2023-05-27T05:25:33;97388.75;;;13.19;51.36
68197;BME280;55019;49.382;11.358;2023-05-27T05:28:04;97396.88;;;13.24;51.55
68197;BME280;55019;49.382;11.358;2023-05-27T05:30:30;97407.44;;;13.30;51.81
68197;BME280;55019;49.382;11.358;2023-05-27T05:32:57;97392.34;;;13.50;50.85
68197;BME280;55019;49.382;11.358;2023-05-27T05:35:27;97388.13;;;13.41;50.06
68197;BME280;55019;49.382;11.358;2023-05-27T05:37:59;97388.31;;;13.47;49.91
68197;BME280;55019;49.382;11.358;2023-05-27T05:40:25;97390.13;;;13.55;49.76
68197;BME280;55019;49.382;11.358;2023-05-27T05:43:08;97391.88;;;13.54;49.87
68197;BME280;55019;49.382;11.358;2023-05-27T05:45:34;97395.59;;;13.44;49.06
68197;BME280;55019;49.382;11.358;2023-05-27T05:48:00;97398.84;;;13.46;50.38
68197;BME280;55019;49.382;11.358;2023-05-27T05:50:29;97394.97;;;13.58;48.75
68197;BME280;55019;49.382;11.358;2023-05-27T05:52:55;97388.16;;;13.73;49.92
68197;BME280;55019;49.382;11.358;2023-05-27T05:55:21;97402.78;;;13.66;48.87
68197;BME280;55019;49.382;11.358;2023-05-27T05:57:47;97403.75;;;13.73;49.47
68197;BME280;55019;49.382;11.358;2023-05-27T06:00:13;97402.59;;;13.75;49.09
68197;BME280;55019;49.382;11.358;2023-05-27T06:02:45;97402.13;;;13.80;49.09
68197;BME280;55019;49.382;11.358;2023-05-27T06:05:22;97401.78;;;13.91;50.50
68197;BME280;55019;49.382;11.358;2023-05-27T06:07:49;97406.63;;;14.02;48.09
68197;BME280;55019;49.382;11.358;2023-05-27T06:10:15;97412.19;;;14.07;48.54
68197;BME280;55019;49.382;11.358;2023-05-27T06:12:42;97405.03;;;14.25;49.32
68197;BME280;55019;49.382;11.358;2023-05-27T06:15:08;97413.47;;;14.19;48.63
68197;BME280;55019;49.382;11.358;2023-05-27T06:17:39;97411.88;;;14.18;48.14
68197;BME280;55019;49.382;11.358;2023-05-27T06:20:05;97408.09;;;14.28;48.40
68197;BME280;55019;49.382;11.358;2023-05-27T06:22:32;97406.63;;;14.34;47.81
68197;BME280;55019;49.382;11.358;2023-05-27T06:25:24;97410.47;;;14.53;48.31
68197;BME280;55019;49.382;11.358;2023-05-27T06:27:56;97410.78;;;14.50;47.20
68197;BME280;55019;49.382;11.358;2023-05-27T06:30:21;97406.69;;;14.64;47.77
68197;BME280;55019;49.382;11.358;2023-05-27T06:32:49;97413.06;;;14.61;47.66
68197;BME280;55019;49.382;11.358;2023-05-27T06:35:15;97409.47;;;14.62;47.35
68197;BME280;55019;49.382;11.358;2023-05-27T06:37:41;97414.84;;;14.61;47.43
68197;BME280;55019;49.382;11.358;2023-05-27T06:40:07;97415.91;;;14.82;47.35
68197;BME280;55019;49.382;11.358;2023-05-27T06:42:33;97410.94;;;14.95;46.55
68197;BME280;55019;49.382;11.358;2023-05-27T06:45:07;97410.78;;;15.27;46.83
68197;BME280;55019;49.382;11.358;2023-05-27T06:47:38;97413.25;;;15.51;46.43
68197;BME280;55019;49.382;11.358;2023-05-27T06:50:04;97404.25;;;15.62;45.47
68197;BME280;55019;49.382;11.358;2023-05-27T06:52:30;97402.50;;;15.77;46.85
68197;BME280;55019;49.382;11.358;2023-05-27T06:55:11;97403.88;;;15.87;45.96
68197;BME280;55019;49.382;11.358;2023-05-27T06:57:55;97405.34;;;16.04;45.14
68197;BME280;55019;49.382;11.358;2023-05-27T07:00:28;97409.38;;;16.29;45.96
68197;BME280;55019;49.382;11.358;2023-05-27T07:03:14;97399.50;;;16.39;45.29
68197;BME280;55019;49.382;11.358;2023-05-27T07:05:41;97417.22;;;16.58;44.65
68197;BME280;55019;49.382;11.358;2023-05-27T07:08:07;97421.81;;;16.85;45.66
68197;BME280;55019;49.382;11.358;2023-05-27T07:10:33;97414.44;;;16.74;46.08
68197;BME280;55019;49.382;11.358;2023-05-27T07:12:59;97421.63;;;16.43;45.54
68197;BME280;55019;49.382;11.358;2023-05-27T07:15:31;97414.69;;;16.50;45.00
68197;BME280;55019;49.382;11.358;2023-05-27T07:17:57;97428.66;;;16.86;44.26
68197;BME280;55019;49.382;11.358;2023-05-27T07:20:24;97416.69;;;16.77;44.41
68197;BME280;55019;49.382;11.358;2023-05-27T07:22:49;97413.59;;;17.17;44.61
68197;BME280;55019;49.382;11.358;2023-05-27T07:25:16;97411.56;;;17.33;44.04
68197;BME280;55019;49.382;11.358;2023-05-27T07:27:41;97416.50;;;17.42;43.91
68197;BME280;55019;49.382;11.358;2023-05-27T07:30:07;97410.47;;;17.84;43.76
68197;BME280;55019;49.382;11.358;2023-05-27T07:32:40;97407.25;;;17.82;43.15
68197;BME280;55019;49.382;11.358;2023-05-27T07:35:07;97404.06;;;18.35;42.77
68197;BME280;55019;49.382;11.358;2023-05-27T07:37:32;97401.25;;;18.64;42.25
68197;BME280;55019;49.382;11.358;2023-05-27T07:39:58;97401.25;;;18.64;41.76
68197;BME280;55019;49.382;11.358;2023-05-27T07:42:24;97399.03;;;18.33;42.33
68197;BME280;55019;49.382;11.358;2023-05-27T07:44:50;97395.50;;;18.81;42.25
68197;BME280;55019;49.382;11.358;2023-05-27T07:47:16;97400.28;;;18.71;42.07
68197;BME280;55019;49.382;11.358;2023-05-27T07:49:41;97391.50;;;18.85;41.43
68197;BME280;55019;49.382;11.358;2023-05-27T07:52:30;97388.66;;;19.33;43.83
68197;BME280;55019;49.382;11.358;2023-05-27T07:54:57;97395.53;;;19.34;42.31
68197;BME280;55019;49.382;11.358;2023-05-27T07:57:24;97386.44;;;19.30;41.71
68197;BME280;55019;49.382;11.358;2023-05-27T07:59:50;97381.47;;;19.55;41.21
68197;BME280;55019;49.382;11.358;2023-05-27T08:02:16;97384.94;;;19.75;42.95
68197;BME280;55019;49.382;11.358;2023-05-27T08:04:43;97370.81;;;19.82;40.59
68197;BME280;55019;49.382;11.358;2023-05-27T08:07:39;97386.78;;;20.00;40.59
68197;BME280;55019;49.382;11.358;2023-05-27T08:10:32;97376.88;;;19.83;39.74
68197;BME280;55019;49.382;11.358;2023-05-27T08:13:14;97380.75;;;20.06;42.34
68197;BME280;55019;49.382;11.358;2023-05-27T08:15:54;97380.25;;;20.61;41.93
68197;BME280;55019;49.382;11.358;2023-05-27T08:18:25;97373.44;;;20.47;40.00
68197;BME280;55019;49.382;11.358;2023-05-27T08:21:13;97373.75;;;20.76;40.29
68197;BME280;55019;49.382;11.358;2023-05-27T08:24:08;97368.75;;;20.55;41.80
68197;BME280;55019;49.382;11.358;2023-05-27T08:26:47;97366.94;;;20.49;37.99
68197;BME280;55019;49.382;11.358;2023-05-27T08:29:20;97366.56;;;21.09;40.06
68197;BME280;55019;49.382;11.358;2023-05-27T08:32:05;97363.03;;;20.84;37.88
68197;BME280;55019;49.382;11.358;2023-05-27T08:34:34;97366.19;;;20.99;38.25
68197;BME280;55019;49.382;11.358;2023-05-27T08:37:00;97369.50;;;20.88;38.31
68197;BME280;55019;49.382;11.358;2023-05-27T08:39:28;97367.69;;;20.76;37.93
68197;BME280;55019;49.382;11.358;2023-05-27T08:42:18;97361.72;;;21.06;36.99
68197;BME280;55019;49.382;11.358;2023-05-27T08:44:45;97361.34;;;21.03;38.63
68197;BME280;55019;49.382;11.358;2023-05-27T08:47:11;97356.53;;;21.68;37.56
68197;BME280;55019;49.382;11.358;2023-05-27T08:49:37;97360.72;;;21.45;36.28
68197;BME280;55019;49.382;11.358;2023-05-27T08:52:03;97362.22;;;20.90;38.54
68197;BME280;55019;49.382;11.358;2023-05-27T08:54:33;97362.22;;;21.65;36.96
68197;BME280;55019;49.382;11.358;2023-05-27T08:57:06;97366.66;;;20.77;38.82
68197;BME280;55019;49.382;11.358;2023-05-27T08:59:36;97355.56;;;21.63;37.90
68197;BME280;55019;49.382;11.358;2023-05-27T09:02:05;97353.28;;;21.73;36.88
68197;BME280;55019;49.382;11.358;2023-05-27T09:04:34;97363.75;;;21.79;38.08
68197;BME280;55019;49.382;11.358;2023-05-27T09:06:59;97349.66;;;22.16;35.59
68197;BME280;55019;49.382;11.358;2023-05-27T09:09:25;97358.38;;;22.95;37.49
68197;BME280;55019;49.382;11.358;2023-05-27T09:11:52;97354.28;;;22.63;36.29
68197;BME280;55019;49.382;11.358;2023-05-27T09:14:21;97346.19;;;22.46;34.01
68197;BME280;55019;49.382;11.358;2023-05-27T09:16:46;97339.94;;;22.95;35.95
68197;BME280;55019;49.382;11.358;2023-05-27T09:19:19;97341.09;;;22.99;34.90
68197;BME280;55019;49.382;11.358;2023-05-27T09:21:45;97344.78;;;23.56;34.45
68197;BME280;55019;49.382;11.358;2023-05-27T09:24:11;97345.47;;;22.33;35.64
68197;BME280;55019;49.382;11.358;2023-05-27T09:26:38;97341.38;;;23.27;35.33
68197;BME280;55019;49.382;11.358;2023-05-27T09:29:07;97330.84;;;23.38;33.32
68197;BME280;55019;49.382;11.358;2023-05-27T09:31:42;97334.69;;;22.59;33.20
68197;BME280;55019;49.382;11.358;2023-05-27T09:34:17;97331.91;;;22.72;35.24
68197;BME280;55019;49.382;11.358;2023-05-27T09:39:10;97326.88;;;22.28;33.25
68197;BME280;55019;49.382;11.358;2023-05-27T09:41:40;97321.00;;;23.34;33.08
68197;BME280;55019;49.382;11.358;2023-05-27T09:44:06;97321.56;;;23.76;34.79
68197;BME280;55019;49.382;11.358;2023-05-27T09:46:33;97321.03;;;24.20;31.68
68197;BME280;55019;49.382;11.358;2023-05-27T09:48:59;97323.44;;;24.68;33.29
68197;BME280;55019;49.382;11.358;2023-05-27T09:51:26;97325.28;;;24.33;32.99
68197;BME280;55019;49.382;11.358;2023-05-27T09:53:54;97311.03;;;24.34;32.19
68197;BME280;55019;49.382;11.358;2023-05-27T09:56:26;97305.31;;;23.39;29.88
68197;BME280;55019;49.382;11.358;2023-05-27T09:58:54;97314.59;;;23.41;30.69
68197;BME280;55019;49.382;11.358;2023-05-27T10:01:25;97304.41;;;23.85;32.30
68197;BME280;55019;49.382;11.358;2023-05-27T10:03:54;97298.53;;;23.83;34.15
68197;BME280;55019;49.382;11.358;2023-05-27T10:06:20;97298.72;;;24.62;30.44
68197;BME280;55019;49.382;11.358;2023-05-27T10:08:47;97293.47;;;24.16;32.55
68197;BME280;55019;49.382;11.358;2023-05-27T10:11:13;97298.28;;;23.33;29.72
68197;BME280;55019;49.382;11.358;2023-05-27T10:13:39;97294.59;;;23.22;29.98
68197;BME280;55019;49.382;11.358;2023-05-27T10:16:05;97294.16;;;24.23;28.96
68197;BME280;55019;49.382;11.358;2023-05-27T10:18:31;97291.88;;;24.38;31.46
68197;BME280;55019;49.382;11.358;2023-05-27T10:21:00;97293.06;;;24.82;30.69
68197;BME280;55019;49.382;11.358;2023-05-27T10:23:30;97294.50;;;24.15;30.17
68197;BME280;55019;49.382;11.358;2023-05-27T10:26:07;97283.38;;;25.15;27.66
68197;BME280;55019;49.382;11.358;2023-05-27T10:28:38;97282.78;;;24.57;28.97
68197;BME280;55019;49.382;11.358;2023-05-27T10:31:07;97289.00;;;24.05;32.31
68197;BME280;55019;49.382;11.358;2023-05-27T10:33:41;97282.38;;;25.60;30.70
68197;BME280;55019;49.382;11.358;2023-05-27T10:36:15;97284.16;;;24.99;30.49
68197;BME280;55019;49.382;11.358;2023-05-27T10:38:42;97289.59;;;23.44;27.83
68197;BME280;55019;49.382;11.358;2023-05-27T10:41:09;97279.84;;;23.33;28.91
68197;BME280;55019;49.382;11.358;2023-05-27T10:43:35;97274.66;;;23.78;28.54
68197;BME280;55019;49.382;11.358;2023-05-27T10:46:09;97277.63;;;24.90;28.38
68197;BME280;55019;49.382;11.358;2023-05-27T10:48:35;97275.47;;;26.09;29.94
68197;BME280;55019;49.382;11.358;2023-05-27T10:51:02;97262.13;;;26.20;26.68
68197;BME280;55019;49.382;11.358;2023-05-27T10:53:29;97268.09;;;26.11;26.65
68197;BME280;55019;49.382;11.358;2023-05-27T10:55:58;97277.28;;;25.87;25.39
68197;BME280;55019;49.382;11.358;2023-05-27T10:58:24;97265.72;;;25.93;24.54
68197;BME280;55019;49.382;11.358;2023-05-27T11:00:53;97275.31;;;25.99;26.62
68197;BME280;55019;49.382;11.358;2023-05-27T11:03:28;97269.13;;;25.77;25.79
68197;BME280;55019;49.382;11.358;2023-05-27T11:06:01;97266.00;;;26.13;27.98
68197;BME280;55019;49.382;11.358;2023-05-27T11:08:27;97272.44;;;25.23;27.45
68197;BME280;55019;49.382;11.358;2023-05-27T11:11:06;97274.97;;;26.12;26.86
68197;BME280;55019;49.382;11.358;2023-05-27T11:16:00;97251.00;;;25.36;25.53
68197;BME280;55019;49.382;11.358;2023-05-27T11:18:34;97260.09;;;25.89;23.88
68197;BME280;55019;49.382;11.358;2023-05-27T11:21:00;97248.38;;;25.36;27.21
68197;BME280;55019;49.382;11.358;2023-05-27T11:23:47;97250.91;;;25.64;26.97
68197;BME280;55019;49.382;11.358;2023-05-27T11:26:23;97247.09;;;25.71;25.41
68197;BME280;55019;49.382;11.358;2023-05-27T11:28:58;97242.84;;;26.25;25.30
68197;BME280;55019;49.382;11.358;2023-05-27T11:31:28;97238.50;;;27.26;26.90
68197;BME280;55019;49.382;11.358;2023-05-27T11:33:54;97234.50;;;25.29;25.78
68197;BME280;55019;49.382;11.358;2023-05-27T11:36:20;97235.13;;;25.36;26.52
68197;BME280;55019;49.382;11.358;2023-05-27T11:41:16;97222.50;;;26.09;26.54
68197;BME280;55019;49.382;11.358;2023-05-27T11:43:59;97218.38;;;26.18;24.97
68197;BME280;55019;49.382;11.358;2023-05-27T11:46:40;97217.97;;;27.16;27.76
68197;BME280;55019;49.382;11.358;2023-05-27T11:49:15;97213.91;;;26.82;25.33
68197;BME280;55019;49.382;11.358;2023-05-27T11:51:42;97207.78;;;26.39;25.87
68197;BME280;55019;49.382;11.358;2023-05-27T11:56:47;97202.31;;;26.46;25.74
68197;BME280;55019;49.382;11.358;2023-05-27T11:59:13;97194.31;;;26.41;26.34
68197;BME280;55019;49.382;11.358;2023-05-27T12:01:40;97191.00;;;26.29;24.53
68197;BME280;55019;49.382;11.358;2023-05-27T12:04:06;97196.78;;;26.68;26.77
68197;BME280;55019;49.382;11.358;2023-05-27T12:06:32;97190.88;;;27.77;27.11
68197;BME280;55019;49.382;11.358;2023-05-27T12:08:58;97191.16;;;27.44;27.05
68197;BME280;55019;49.382;11.358;2023-05-27T12:11:24;97186.00;;;26.32;25.34
68197;BME280;55019;49.382;11.358;2023-05-27T12:13:52;97179.53;;;26.45;27.48
68197;BME280;55019;49.382;11.358;2023-05-27T12:16:18;97176.00;;;27.08;26.57
68197;BME280;55019;49.382;11.358;2023-05-27T12:18:44;97181.88;;;27.15;25.58
68197;BME280;55019;49.382;11.358;2023-05-27T12:21:10;97176.50;;;26.36;24.46
68197;BME280;55019;49.382;11.358;2023-05-27T12:23:36;97174.47;;;26.22;26.91
68197;BME280;55019;49.382;11.358;2023-05-27T12:26:02;97172.00;;;25.94;25.37
68197;BME280;55019;49.382;11.358;2023-05-27T12:28:28;97172.41;;;25.86;24.15
68197;BME280;55019;49.382;11.358;2023-05-27T12:30:54;97160.38;;;25.12;24.77
68197;BME280;55019;49.382;11.358;2023-05-27T12:33:20;97163.53;;;25.42;25.67
68197;BME280;55019;49.382;11.358;2023-05-27T12:35:46;97158.53;;;25.79;26.74
68197;BME280;55019;49.382;11.358;2023-05-27T12:38:11;97159.13;;;25.48;26.13
68197;BME280;55019;49.382;11.358;2023-05-27T12:40:37;97161.38;;;25.23;27.62
68197;BME280;55019;49.382;11.358;2023-05-27T12:43:03;97161.53;;;24.89;27.43
68197;BME280;55019;49.382;11.358;2023-05-27T12:45:32;97160.44;;;25.01;27.94
68197;BME280;55019;49.382;11.358;2023-05-27T12:47:58;97158.91;;;25.16;28.57
68197;BME280;55019;49.382;11.358;2023-05-27T12:50:25;97158.72;;;25.56;27.46
68197;BME280;55019;49.382;11.358;2023-05-27T12:52:51;97146.91;;;26.01;27.24
68197;BME280;55019;49.382;11.358;2023-05-27T12:55:19;97147.00;;;25.68;24.94
68197;BME280;55019;49.382;11.358;2023-05-27T12:57:48;97138.97;;;25.14;25.56
68197;BME280;55019;49.382;11.358;2023-05-27T13:00:15;97141.63;;;25.14;25.62
68197;BME280;55019;49.382;11.358;2023-05-27T13:02:41;97129.69;;;25.11;23.64
68197;BME280;55019;49.382;11.358;2023-05-27T13:05:08;97130.47;;;24.79;24.68
68197;BME280;55019;49.382;11.358;2023-05-27T13:07:35;97127.44;;;24.87;26.46
68197;BME280;55019;49.382;11.358;2023-05-27T13:10:03;97122.31;;;24.97;25.12
68197;BME280;55019;49.382;11.358;2023-05-27T13:12:31;97127.47;;;25.20;25.74
68197;BME280;55019;49.382;11.358;2023-05-27T13:14:58;97121.31;;;25.31;23.20